Makoti, North Dakota
Current Conditions -  °F | °C
As of 3:30 PM on Thursday 18 Dec 2014 (Local Time) from KMOT Reporting Station
Haze Haze  
Wind Chill: 14°   Ceiling: 1000
Heat Index: 22°   Visibility: 5mi
Dew Point: 18°   Wind: 6mph
Humidity: 85%   Direction: 150°SSE
Pressure: 29.99"   Gusts: NA
Location:  47.96°N, 101.8°W
Report Text: KMOT 182130Z 15005KT 5SM BR OVC010 M06/M08 A2999 RMK AO2 T10561078
Loading
Personal Weather Stations






























Interactive Weather Map New forecast layout! Learn more

10-Day Weather Forecast

Advertisements
Track Severe Weather on mobile